sensor_id;sensor_type;location;lat;lon;timestamp;temperature;humidity
34815;DHT22;21030;53.912;15.214;2022-11-20T00:01:30;28.90;17.50
34815;DHT22;21030;53.912;15.214;2022-11-20T00:03:58;28.70;17.60
34815;DHT22;21030;53.912;15.214;2022-11-20T00:06:27;28.90;17.70
34815;DHT22;21030;53.912;15.214;2022-11-20T00:08:56;29.00;17.70
34815;DHT22;21030;53.912;15.214;2022-11-20T00:11:25;29.20;17.60
34815;DHT22;21030;53.912;15.214;2022-11-20T00:13:54;29.20;17.50
34815;DHT22;21030;53.912;15.214;2022-11-20T00:16:23;29.30;17.40
34815;DHT22;21030;53.912;15.214;2022-11-20T00:18:51;29.50;17.30
34815;DHT22;21030;53.912;15.214;2022-11-20T00:21:21;29.40;17.20
34815;DHT22;21030;53.912;15.214;2022-11-20T00:23:49;29.40;17.30
34815;DHT22;21030;53.912;15.214;2022-11-20T00:26:18;29.20;17.50
34815;DHT22;21030;53.912;15.214;2022-11-20T00:28:50;28.90;17.60
34815;DHT22;21030;53.912;15.214;2022-11-20T00:31:18;28.60;17.80
34815;DHT22;21030;53.912;15.214;2022-11-20T00:33:45;28.00;18.20
34815;DHT22;21030;53.912;15.214;2022-11-20T00:36:15;28.00;18.40
34815;DHT22;21030;53.912;15.214;2022-11-20T00:38:43;28.10;18.60
34815;DHT22;21030;53.912;15.214;2022-11-20T00:41:15;27.60;18.80
34815;DHT22;21030;53.912;15.214;2022-11-20T00:43:43;27.50;19.00
34815;DHT22;21030;53.912;15.214;2022-11-20T00:46:14;27.40;19.20
34815;DHT22;21030;53.912;15.214;2022-11-20T00:48:42;27.70;19.20
34815;DHT22;21030;53.912;15.214;2022-11-20T00:51:12;27.50;19.10
34815;DHT22;21030;53.912;15.214;2022-11-20T00:53:39;28.00;19.20
34815;DHT22;21030;53.912;15.214;2022-11-20T00:56:09;28.60;19.00
34815;DHT22;21030;53.912;15.214;2022-11-20T00:58:38;28.40;18.90
34815;DHT22;21030;53.912;15.214;2022-11-20T01:01:17;28.50;18.90
34815;DHT22;21030;53.912;15.214;2022-11-20T01:03:58;28.30;18.90
34815;DHT22;21030;53.912;15.214;2022-11-20T01:06:38;28.70;18.90
34815;DHT22;21030;53.912;15.214;2022-11-20T01:09:13;28.40;18.90
34815;DHT22;21030;53.912;15.214;2022-11-20T01:11:43;28.30;18.90
34815;DHT22;21030;53.912;15.214;2022-11-20T01:14:13;28.10;19.10
34815;DHT22;21030;53.912;15.214;2022-11-20T01:16:43;28.50;19.30
34815;DHT22;21030;53.912;15.214;2022-11-20T01:19:13;29.00;19.00
34815;DHT22;21030;53.912;15.214;2022-11-20T01:21:45;29.20;19.00
34815;DHT22;21030;53.912;15.214;2022-11-20T01:24:14;29.40;18.70
34815;DHT22;21030;53.912;15.214;2022-11-20T01:26:43;29.30;18.50
34815;DHT22;21030;53.912;15.214;2022-11-20T01:29:14;29.30;18.70
34815;DHT22;21030;53.912;15.214;2022-11-20T01:31:42;29.40;18.60
34815;DHT22;21030;53.912;15.214;2022-11-20T01:34:12;28.90;18.80
34815;DHT22;21030;53.912;15.214;2022-11-20T01:36:41;29.10;18.90
34815;DHT22;21030;53.912;15.214;2022-11-20T01:39:20;29.40;18.70
34815;DHT22;21030;53.912;15.214;2022-11-20T01:41:49;29.30;18.70
34815;DHT22;21030;53.912;15.214;2022-11-20T01:44:58;28.70;18.70
34815;DHT22;21030;53.912;15.214;2022-11-20T01:47:32;28.80;19.00
34815;DHT22;21030;53.912;15.214;2022-11-20T01:50:17;28.90;19.00
34815;DHT22;21030;53.912;15.214;2022-11-20T01:52:55;28.20;19.10
34815;DHT22;21030;53.912;15.214;2022-11-20T01:55:26;27.90;19.50
34815;DHT22;21030;53.912;15.214;2022-11-20T01:57:54;28.50;20.10
34815;DHT22;21030;53.912;15.214;2022-11-20T02:00:22;28.70;19.10
34815;DHT22;21030;53.912;15.214;2022-11-20T02:02:57;28.80;19.00
34815;DHT22;21030;53.912;15.214;2022-11-20T02:05:31;28.60;19.00
34815;DHT22;21030;53.912;15.214;2022-11-20T02:08:00;28.40;19.20
34815;DHT22;21030;53.912;15.214;2022-11-20T02:10:29;28.00;19.20
34815;DHT22;21030;53.912;15.214;2022-11-20T02:12:57;28.20;19.30
34815;DHT22;21030;53.912;15.214;2022-11-20T02:15:44;28.10;19.40
34815;DHT22;21030;53.912;15.214;2022-11-20T02:18:13;28.40;19.50
34815;DHT22;21030;53.912;15.214;2022-11-20T02:20:43;28.60;19.30
34815;DHT22;21030;53.912;15.214;2022-11-20T02:26:15;28.80;19.30
34815;DHT22;21030;53.912;15.214;2022-11-20T02:28:42;28.90;19.20
34815;DHT22;21030;53.912;15.214;2022-11-20T02:31:09;28.90;19.40
34815;DHT22;21030;53.912;15.214;2022-11-20T02:33:36;28.30;19.20
34815;DHT22;21030;53.912;15.214;2022-11-20T02:36:04;28.20;19.70
34815;DHT22;21030;53.912;15.214;2022-11-20T02:38:31;28.00;19.90
34815;DHT22;21030;53.912;15.214;2022-11-20T02:40:58;27.80;19.80
34815;DHT22;21030;53.912;15.214;2022-11-20T02:43:25;28.10;20.00
34815;DHT22;21030;53.912;15.214;2022-11-20T02:45:52;28.50;19.70
34815;DHT22;21030;53.912;15.214;2022-11-20T02:48:19;28.60;19.70
34815;DHT22;21030;53.912;15.214;2022-11-20T02:50:46;28.10;19.90
34815;DHT22;21030;53.912;15.214;2022-11-20T02:53:13;27.80;20.20
34815;DHT22;21030;53.912;15.214;2022-11-20T02:55:40;27.80;20.40
34815;DHT22;21030;53.912;15.214;2022-11-20T02:58:07;27.60;20.30
34815;DHT22;21030;53.912;15.214;2022-11-20T03:00:35;27.90;20.40
34815;DHT22;21030;53.912;15.214;2022-11-20T03:03:02;27.70;20.40
34815;DHT22;21030;53.912;15.214;2022-11-20T03:05:29;27.60;20.70
34815;DHT22;21030;53.912;15.214;2022-11-20T03:07:56;28.30;20.60
34815;DHT22;21030;53.912;15.214;2022-11-20T03:10:23;28.30;20.20
34815;DHT22;21030;53.912;15.214;2022-11-20T03:12:56;28.60;20.20
34815;DHT22;21030;53.912;15.214;2022-11-20T03:15:23;28.70;19.90
34815;DHT22;21030;53.912;15.214;2022-11-20T03:17:54;28.90;19.80
34815;DHT22;21030;53.912;15.214;2022-11-20T03:20:23;29.40;19.60
34815;DHT22;21030;53.912;15.214;2022-11-20T03:22:50;29.60;19.50
34815;DHT22;21030;53.912;15.214;2022-11-20T03:25:18;29.50;19.90
34815;DHT22;21030;53.912;15.214;2022-11-20T03:27:46;29.90;19.20
34815;DHT22;21030;53.912;15.214;2022-11-20T03:30:13;30.30;19.10
34815;DHT22;21030;53.912;15.214;2022-11-20T03:32:41;30.40;18.90
34815;DHT22;21030;53.912;15.214;2022-11-20T03:35:09;30.50;18.90
34815;DHT22;21030;53.912;15.214;2022-11-20T03:37:36;30.30;18.80
34815;DHT22;21030;53.912;15.214;2022-11-20T03:40:04;30.50;18.90
34815;DHT22;21030;53.912;15.214;2022-11-20T03:42:31;30.60;18.90
34815;DHT22;21030;53.912;15.214;2022-11-20T03:45:17;30.50;18.90
34815;DHT22;21030;53.912;15.214;2022-11-20T03:47:46;30.30;19.00
34815;DHT22;21030;53.912;15.214;2022-11-20T03:50:14;30.30;19.00
34815;DHT22;21030;53.912;15.214;2022-11-20T03:52:42;30.50;19.00
34815;DHT22;21030;53.912;15.214;2022-11-20T03:55:09;30.60;18.80
34815;DHT22;21030;53.912;15.214;2022-11-20T03:57:36;30.70;18.80
34815;DHT22;21030;53.912;15.214;2022-11-20T04:00:04;30.60;18.80
34815;DHT22;21030;53.912;15.214;2022-11-20T04:02:32;30.50;18.80
34815;DHT22;21030;53.912;15.214;2022-11-20T04:04:59;30.60;18.90
34815;DHT22;21030;53.912;15.214;2022-11-20T04:07:26;30.60;18.80
34815;DHT22;21030;53.912;15.214;2022-11-20T04:09:53;30.50;18.80
34815;DHT22;21030;53.912;15.214;2022-11-20T04:12:20;30.60;18.80
34815;DHT22;21030;53.912;15.214;2022-11-20T04:14:47;30.60;18.80
34815;DHT22;21030;53.912;15.214;2022-11-20T04:17:14;30.60;18.80
34815;DHT22;21030;53.912;15.214;2022-11-20T04:19:41;30.70;18.80
34815;DHT22;21030;53.912;15.214;2022-11-20T04:22:08;30.60;18.80
34815;DHT22;21030;53.912;15.214;2022-11-20T04:24:35;30.60;18.70
34815;DHT22;21030;53.912;15.214;2022-11-20T04:27:02;30.30;18.70
34815;DHT22;21030;53.912;15.214;2022-11-20T04:29:29;30.60;18.90
34815;DHT22;21030;53.912;15.214;2022-11-20T04:31:56;30.70;18.80
34815;DHT22;21030;53.912;15.214;2022-11-20T04:34:23;30.80;18.60
34815;DHT22;21030;53.912;15.214;2022-11-20T04:36:50;30.80;18.60
34815;DHT22;21030;53.912;15.214;2022-11-20T04:39:17;30.80;18.50
34815;DHT22;21030;53.912;15.214;2022-11-20T04:41:44;30.70;18.60
34815;DHT22;21030;53.912;15.214;2022-11-20T04:44:11;30.70;18.60
34815;DHT22;21030;53.912;15.214;2022-11-20T04:46:41;30.50;18.70
34815;DHT22;21030;53.912;15.214;2022-11-20T04:49:08;30.50;18.80
34815;DHT22;21030;53.912;15.214;2022-11-20T04:51:37;30.40;18.80
34815;DHT22;21030;53.912;15.214;2022-11-20T04:54:04;30.50;18.90
34815;DHT22;21030;53.912;15.214;2022-11-20T04:56:31;30.20;18.80
34815;DHT22;21030;53.912;15.214;2022-11-20T04:59:01;30.10;18.80
34815;DHT22;21030;53.912;15.214;2022-11-20T05:01:29;30.30;18.90
34815;DHT22;21030;53.912;15.214;2022-11-20T05:03:56;30.30;19.00
34815;DHT22;21030;53.912;15.214;2022-11-20T05:06:23;30.00;18.90
34815;DHT22;21030;53.912;15.214;2022-11-20T05:08:50;30.00;19.00
34815;DHT22;21030;53.912;15.214;2022-11-20T05:11:20;30.20;19.00
34815;DHT22;21030;53.912;15.214;2022-11-20T05:13:50;30.10;18.90
34815;DHT22;21030;53.912;15.214;2022-11-20T05:16:20;29.80;19.10
34815;DHT22;21030;53.912;15.214;2022-11-20T05:18:48;29.90;19.20
34815;DHT22;21030;53.912;15.214;2022-11-20T05:21:15;29.90;19.10
34815;DHT22;21030;53.912;15.214;2022-11-20T05:23:43;30.00;19.10
34815;DHT22;21030;53.912;15.214;2022-11-20T05:26:19;29.80;19.20
34815;DHT22;21030;53.912;15.214;2022-11-20T05:28:48;29.60;19.20
34815;DHT22;21030;53.912;15.214;2022-11-20T05:31:25;29.60;19.20
34815;DHT22;21030;53.912;15.214;2022-11-20T05:33:55;29.50;19.20
34815;DHT22;21030;53.912;15.214;2022-11-20T05:36:22;29.10;19.30
34815;DHT22;21030;53.912;15.214;2022-11-20T05:38:49;28.80;19.40
34815;DHT22;21030;53.912;15.214;2022-11-20T05:41:20;28.90;19.60
34815;DHT22;21030;53.912;15.214;2022-11-20T05:43:49;28.40;19.70
34815;DHT22;21030;53.912;15.214;2022-11-20T05:46:18;28.30;19.80
34815;DHT22;21030;53.912;15.214;2022-11-20T05:48:53;28.50;20.00
34815;DHT22;21030;53.912;15.214;2022-11-20T05:51:20;29.10;19.90
34815;DHT22;21030;53.912;15.214;2022-11-20T05:53:48;29.30;19.80
34815;DHT22;21030;53.912;15.214;2022-11-20T05:56:17;29.40;19.70
34815;DHT22;21030;53.912;15.214;2022-11-20T05:58:45;29.60;19.50
34815;DHT22;21030;53.912;15.214;2022-11-20T06:01:21;29.60;19.40
34815;DHT22;21030;53.912;15.214;2022-11-20T06:03:50;29.40;19.50
34815;DHT22;21030;53.912;15.214;2022-11-20T06:06:18;29.60;19.60
34815;DHT22;21030;53.912;15.214;2022-11-20T06:08:46;29.60;19.50
34815;DHT22;21030;53.912;15.214;2022-11-20T06:11:15;29.80;19.50
34815;DHT22;21030;53.912;15.214;2022-11-20T06:13:44;29.60;19.40
34815;DHT22;21030;53.912;15.214;2022-11-20T06:16:14;29.70;19.40
34815;DHT22;21030;53.912;15.214;2022-11-20T06:18:41;29.60;19.30
34815;DHT22;21030;53.912;15.214;2022-11-20T06:21:18;29.80;19.90
34815;DHT22;21030;53.912;15.214;2022-11-20T06:23:45;29.80;19.30
34815;DHT22;21030;53.912;15.214;2022-11-20T06:26:21;29.80;19.30
34815;DHT22;21030;53.912;15.214;2022-11-20T06:28:50;29.80;19.40
34815;DHT22;21030;53.912;15.214;2022-11-20T06:31:19;29.80;19.30
34815;DHT22;21030;53.912;15.214;2022-11-20T06:33:47;29.80;19.30
34815;DHT22;21030;53.912;15.214;2022-11-20T06:36:17;29.30;19.40
34815;DHT22;21030;53.912;15.214;2022-11-20T06:38:44;29.60;19.50
34815;DHT22;21030;53.912;15.214;2022-11-20T06:41:17;29.60;19.30
34815;DHT22;21030;53.912;15.214;2022-11-20T06:43:44;29.80;19.40
34815;DHT22;21030;53.912;15.214;2022-11-20T06:46:12;30.00;19.30
34815;DHT22;21030;53.912;15.214;2022-11-20T06:48:40;30.10;19.20
34815;DHT22;21030;53.912;15.214;2022-11-20T06:51:07;30.20;19.10
34815;DHT22;21030;53.912;15.214;2022-11-20T06:53:35;30.10;19.10
34815;DHT22;21030;53.912;15.214;2022-11-20T06:56:03;30.20;19.10
34815;DHT22;21030;53.912;15.214;2022-11-20T06:58:32;30.20;19.10
34815;DHT22;21030;53.912;15.214;2022-11-20T07:01:20;30.40;19.10
34815;DHT22;21030;53.912;15.214;2022-11-20T07:03:49;30.40;19.00
34815;DHT22;21030;53.912;15.214;2022-11-20T07:06:20;30.40;19.10
34815;DHT22;21030;53.912;15.214;2022-11-20T07:08:47;30.60;19.00
34815;DHT22;21030;53.912;15.214;2022-11-20T07:11:16;30.70;19.00
34815;DHT22;21030;53.912;15.214;2022-11-20T07:13:45;30.40;19.10
34815;DHT22;21030;53.912;15.214;2022-11-20T07:16:11;30.60;19.10
34815;DHT22;21030;53.912;15.214;2022-11-20T07:18:38;30.60;19.10
34815;DHT22;21030;53.912;15.214;2022-11-20T07:21:08;30.60;19.10
34815;DHT22;21030;53.912;15.214;2022-11-20T07:23:36;30.60;19.10
34815;DHT22;21030;53.912;15.214;2022-11-20T07:26:04;30.40;19.10
34815;DHT22;21030;53.912;15.214;2022-11-20T07:28:32;30.60;19.10
34815;DHT22;21030;53.912;15.214;2022-11-20T07:30:59;30.60;19.10
34815;DHT22;21030;53.912;15.214;2022-11-20T07:33:26;30.20;19.00
34815;DHT22;21030;53.912;15.214;2022-11-20T07:35:53;29.90;19.30
34815;DHT22;21030;53.912;15.214;2022-11-20T07:38:21;30.30;19.40
34815;DHT22;21030;53.912;15.214;2022-11-20T07:40:48;30.20;19.40
34815;DHT22;21030;53.912;15.214;2022-11-20T07:43:20;30.30;19.40
34815;DHT22;21030;53.912;15.214;2022-11-20T07:45:48;30.50;19.30
34815;DHT22;21030;53.912;15.214;2022-11-20T07:48:15;30.10;19.40
34815;DHT22;21030;53.912;15.214;2022-11-20T07:50:42;30.00;19.50
34815;DHT22;21030;53.912;15.214;2022-11-20T07:53:09;30.00;19.60
34815;DHT22;21030;53.912;15.214;2022-11-20T07:55:36;29.30;19.50
34815;DHT22;21030;53.912;15.214;2022-11-20T07:58:03;29.80;19.70
34815;DHT22;21030;53.912;15.214;2022-11-20T08:00:30;29.70;19.60
34815;DHT22;21030;53.912;15.214;2022-11-20T08:02:57;29.90;19.60
34815;DHT22;21030;53.912;15.214;2022-11-20T08:05:24;30.30;19.70
34815;DHT22;21030;53.912;15.214;2022-11-20T08:07:51;30.40;19.40
34815;DHT22;21030;53.912;15.214;2022-11-20T08:10:18;30.60;19.40
34815;DHT22;21030;53.912;15.214;2022-11-20T08:12:50;30.60;19.30
34815;DHT22;21030;53.912;15.214;2022-11-20T08:15:36;30.70;19.30
34815;DHT22;21030;53.912;15.214;2022-11-20T08:18:11;30.70;19.20
34815;DHT22;21030;53.912;15.214;2022-11-20T08:21:02;30.80;19.30
34815;DHT22;21030;53.912;15.214;2022-11-20T08:23:29;30.90;19.20
34815;DHT22;21030;53.912;15.214;2022-11-20T08:25:56;30.80;19.20
34815;DHT22;21030;53.912;15.214;2022-11-20T08:28:24;30.80;19.30
34815;DHT22;21030;53.912;15.214;2022-11-20T08:30:57;30.70;19.40
34815;DHT22;21030;53.912;15.214;2022-11-20T08:33:26;30.70;19.40
34815;DHT22;21030;53.912;15.214;2022-11-20T08:35:53;30.70;19.40
34815;DHT22;21030;53.912;15.214;2022-11-20T08:38:20;30.40;19.60
34815;DHT22;21030;53.912;15.214;2022-11-20T08:40:47;30.60;19.60
34815;DHT22;21030;53.912;15.214;2022-11-20T08:43:34;30.90;19.50
34815;DHT22;21030;53.912;15.214;2022-11-20T08:46:01;30.90;19.40
34815;DHT22;21030;53.912;15.214;2022-11-20T08:48:28;31.10;19.40
34815;DHT22;21030;53.912;15.214;2022-11-20T08:50:58;31.10;19.30
34815;DHT22;21030;53.912;15.214;2022-11-20T08:53:27;31.30;19.20
34815;DHT22;21030;53.912;15.214;2022-11-20T08:55:56;31.50;19.20
34815;DHT22;21030;53.912;15.214;2022-11-20T08:58:23;31.60;19.20
34815;DHT22;21030;53.912;15.214;2022-11-20T09:00:51;31.80;19.20
34815;DHT22;21030;53.912;15.214;2022-11-20T09:03:20;31.70;19.20
34815;DHT22;21030;53.912;15.214;2022-11-20T09:05:47;31.70;19.20
34815;DHT22;21030;53.912;15.214;2022-11-20T09:08:15;31.50;19.40
34815;DHT22;21030;53.912;15.214;2022-11-20T09:10:43;31.20;19.50
34815;DHT22;21030;53.912;15.214;2022-11-20T09:13:10;31.30;19.60
34815;DHT22;21030;53.912;15.214;2022-11-20T09:15:37;31.10;19.70
34815;DHT22;21030;53.912;15.214;2022-11-20T09:18:04;31.00;19.80
34815;DHT22;21030;53.912;15.214;2022-11-20T09:20:37;31.40;19.80
34815;DHT22;21030;53.912;15.214;2022-11-20T09:23:05;31.40;19.80
34815;DHT22;21030;53.912;15.214;2022-11-20T09:25:33;31.40;19.60
34815;DHT22;21030;53.912;15.214;2022-11-20T09:28:01;31.10;20.00
34815;DHT22;21030;53.912;15.214;2022-11-20T09:30:28;31.50;20.00
34815;DHT22;21030;53.912;15.214;2022-11-20T09:32:56;31.70;19.80
34815;DHT22;21030;53.912;15.214;2022-11-20T09:35:23;31.70;19.70
34815;DHT22;21030;53.912;15.214;2022-11-20T09:37:54;31.70;19.70
34815;DHT22;21030;53.912;15.214;2022-11-20T09:40:26;31.70;19.80
34815;DHT22;21030;53.912;15.214;2022-11-20T09:43:18;32.00;19.70
34815;DHT22;21030;53.912;15.214;2022-11-20T09:46:04;32.20;19.50
34815;DHT22;21030;53.912;15.214;2022-11-20T09:51:20;32.20;19.70
34815;DHT22;21030;53.912;15.214;2022-11-20T09:54:17;32.30;19.70
34815;DHT22;21030;53.912;15.214;2022-11-20T09:56:46;32.00;19.70
34815;DHT22;21030;53.912;15.214;2022-11-20T09:59:31;31.90;19.90
34815;DHT22;21030;53.912;15.214;2022-11-20T10:01:59;32.00;19.80
34815;DHT22;21030;53.912;15.214;2022-11-20T10:04:30;32.20;19.90
34815;DHT22;21030;53.912;15.214;2022-11-20T10:07:13;32.20;19.80
34815;DHT22;21030;53.912;15.214;2022-11-20T10:09:58;32.20;20.40
34815;DHT22;21030;53.912;15.214;2022-11-20T10:15:45;32.20;19.90
34815;DHT22;21030;53.912;15.214;2022-11-20T10:21:25;32.80;19.60
34815;DHT22;21030;53.912;15.214;2022-11-20T10:29:38;33.40;19.30
34815;DHT22;21030;53.912;15.214;2022-11-20T10:32:14;33.50;19.30
34815;DHT22;21030;53.912;15.214;2022-11-20T10:37:29;33.20;19.40
34815;DHT22;21030;53.912;15.214;2022-11-20T10:50:32;32.90;19.60
34815;DHT22;21030;53.912;15.214;2022-11-20T10:56:33;32.70;19.90
34815;DHT22;21030;53.912;15.214;2022-11-20T11:01:55;31.20;20.20
34815;DHT22;21030;53.912;15.214;2022-11-20T11:04:37;30.90;20.90
34815;DHT22;21030;53.912;15.214;2022-11-20T11:07:17;30.00;21.30
34815;DHT22;21030;53.912;15.214;2022-11-20T11:09:50;29.50;21.70
34815;DHT22;21030;53.912;15.214;2022-11-20T11:12:19;29.50;22.20
34815;DHT22;21030;53.912;15.214;2022-11-20T11:14:52;29.60;22.00
34815;DHT22;21030;53.912;15.214;2022-11-20T11:17:31;29.10;22.10
34815;DHT22;21030;53.912;15.214;2022-11-20T11:22:32;29.30;22.00
34815;DHT22;21030;53.912;15.214;2022-11-20T11:25:00;28.50;22.10
34815;DHT22;21030;53.912;15.214;2022-11-20T11:27:27;28.10;22.60
34815;DHT22;21030;53.912;15.214;2022-11-20T11:30:14;27.30;22.60
34815;DHT22;21030;53.912;15.214;2022-11-20T11:32:43;26.20;23.50
34815;DHT22;21030;53.912;15.214;2022-11-20T11:35:26;26.50;24.10
34815;DHT22;21030;53.912;15.214;2022-11-20T11:38:15;27.30;23.80
34815;DHT22;21030;53.912;15.214;2022-11-20T11:40:44;28.00;23.20
34815;DHT22;21030;53.912;15.214;2022-11-20T11:43:28;27.40;23.30
34815;DHT22;21030;53.912;15.214;2022-11-20T11:46:34;27.60;23.40
34815;DHT22;21030;53.912;15.214;2022-11-20T11:52:17;27.90;23.50
34815;DHT22;21030;53.912;15.214;2022-11-20T11:54:57;28.60;23.10
34815;DHT22;21030;53.912;15.214;2022-11-20T11:57:45;29.10;22.60
34815;DHT22;21030;53.912;15.214;2022-11-20T12:00:19;29.50;22.30
34815;DHT22;21030;53.912;15.214;2022-11-20T12:08:20;30.20;21.80
34815;DHT22;21030;53.912;15.214;2022-11-20T12:14:02;29.90;21.70
34815;DHT22;21030;53.912;15.214;2022-11-20T12:16:36;29.40;21.80
34815;DHT22;21030;53.912;15.214;2022-11-20T12:19:11;29.40;22.10
34815;DHT22;21030;53.912;15.214;2022-11-20T12:24:39;28.60;22.60
34815;DHT22;21030;53.912;15.214;2022-11-20T12:44:11;28.30;22.80
34815;DHT22;21030;53.912;15.214;2022-11-20T12:47:14;28.50;23.20
34815;DHT22;21030;53.912;15.214;2022-11-20T12:52:48;28.90;22.60
34815;DHT22;21030;53.912;15.214;2022-11-20T12:58:55;28.50;22.60
34815;DHT22;21030;53.912;15.214;2022-11-20T13:01:45;27.40;23.70
34815;DHT22;21030;53.912;15.214;2022-11-20T13:07:05;28.30;23.00
34815;DHT22;21030;53.912;15.214;2022-11-20T13:09:34;27.80;23.20
34815;DHT22;21030;53.912;15.214;2022-11-20T13:15:44;27.30;23.70
34815;DHT22;21030;53.912;15.214;2022-11-20T13:17:52;27.40;23.80
34815;DHT22;21030;53.912;15.214;2022-11-20T13:20:20;28.50;23.40
34815;DHT22;21030;53.912;15.214;2022-11-20T13:22:50;28.50;22.90
34815;DHT22;21030;53.912;15.214;2022-11-20T13:25:31;28.60;23.00
34815;DHT22;21030;53.912;15.214;2022-11-20T13:28:28;28.50;22.90
34815;DHT22;21030;53.912;15.214;2022-11-20T13:30:57;28.00;22.80
34815;DHT22;21030;53.912;15.214;2022-11-20T13:33:38;27.80;23.30
34815;DHT22;21030;53.912;15.214;2022-11-20T13:36:06;28.30;23.30
34815;DHT22;21030;53.912;15.214;2022-11-20T13:38:48;28.50;23.00
34815;DHT22;21030;53.912;15.214;2022-11-20T13:41:28;28.00;23.20
34815;DHT22;21030;53.912;15.214;2022-11-20T13:44:05;28.50;23.10
34815;DHT22;21030;53.912;15.214;2022-11-20T13:46:40;28.80;22.80
34815;DHT22;21030;53.912;15.214;2022-11-20T13:49:27;29.00;22.60
34815;DHT22;21030;53.912;15.214;2022-11-20T13:52:23;29.30;22.50
34815;DHT22;21030;53.912;15.214;2022-11-20T14:00:18;29.30;22.50
34815;DHT22;21030;53.912;15.214;2022-11-20T14:05:29;28.90;22.40
34815;DHT22;21030;53.912;15.214;2022-11-20T14:07:59;28.90;22.50
34815;DHT22;21030;53.912;15.214;2022-11-20T14:10:29;29.40;22.70
34815;DHT22;21030;53.912;15.214;2022-11-20T14:12:58;29.20;22.40
34815;DHT22;21030;53.912;15.214;2022-11-20T14:15:34;29.00;22.60
34815;DHT22;21030;53.912;15.214;2022-11-20T14:18:21;28.10;22.70
34815;DHT22;21030;53.912;15.214;2022-11-20T14:20:48;28.30;23.10
34815;DHT22;21030;53.912;15.214;2022-11-20T14:23:25;28.60;23.00
34815;DHT22;21030;53.912;15.214;2022-11-20T14:25:56;28.40;22.90
34815;DHT22;21030;53.912;15.214;2022-11-20T14:28:30;28.20;23.30
34815;DHT22;21030;53.912;15.214;2022-11-20T14:30:58;28.10;23.30
34815;DHT22;21030;53.912;15.214;2022-11-20T14:33:26;28.70;23.10
34815;DHT22;21030;53.912;15.214;2022-11-20T14:35:55;28.60;22.80
34815;DHT22;21030;53.912;15.214;2022-11-20T14:38:26;28.60;22.80
34815;DHT22;21030;53.912;15.214;2022-11-20T14:40:53;28.40;23.10
34815;DHT22;21030;53.912;15.214;2022-11-20T14:43:28;28.40;22.90
34815;DHT22;21030;53.912;15.214;2022-11-20T14:46:02;28.90;22.70
34815;DHT22;21030;53.912;15.214;2022-11-20T14:48:35;29.10;22.40
34815;DHT22;21030;53.912;15.214;2022-11-20T14:51:04;28.60;22.80
34815;DHT22;21030;53.912;15.214;2022-11-20T14:53:31;28.70;22.80
34815;DHT22;21030;53.912;15.214;2022-11-20T14:56:00;28.40;22.90
34815;DHT22;21030;53.912;15.214;2022-11-20T14:58:32;28.00;22.70
34815;DHT22;21030;53.912;15.214;2022-11-20T15:01:03;28.20;23.10
34815;DHT22;21030;53.912;15.214;2022-11-20T15:03:36;28.30;23.10
34815;DHT22;21030;53.912;15.214;2022-11-20T15:06:09;28.60;22.80
34815;DHT22;21030;53.912;15.214;2022-11-20T15:08:37;28.20;22.80
34815;DHT22;21030;53.912;15.214;2022-11-20T15:11:20;27.90;23.30
34815;DHT22;21030;53.912;15.214;2022-11-20T15:13:50;28.60;23.00
34815;DHT22;21030;53.912;15.214;2022-11-20T15:16:21;28.80;22.80
34815;DHT22;21030;53.912;15.214;2022-11-20T15:18:50;28.40;22.70
34815;DHT22;21030;53.912;15.214;2022-11-20T15:21:19;28.80;22.50
34815;DHT22;21030;53.912;15.214;2022-11-20T15:23:47;28.60;22.80
34815;DHT22;21030;53.912;15.214;2022-11-20T15:26:24;28.20;23.10
34815;DHT22;21030;53.912;15.214;2022-11-20T15:28:52;28.30;23.00
34815;DHT22;21030;53.912;15.214;2022-11-20T15:31:22;29.10;22.60
34815;DHT22;21030;53.912;15.214;2022-11-20T15:33:50;29.00;22.40
34815;DHT22;21030;53.912;15.214;2022-11-20T15:36:17;29.30;22.30
34815;DHT22;21030;53.912;15.214;2022-11-20T15:38:45;29.40;22.70
34815;DHT22;21030;53.912;15.214;2022-11-20T15:41:12;29.40;22.20
34815;DHT22;21030;53.912;15.214;2022-11-20T15:43:39;29.50;22.00
34815;DHT22;21030;53.912;15.214;2022-11-20T15:46:13;29.60;22.00
34815;DHT22;21030;53.912;15.214;2022-11-20T15:48:51;29.60;22.10
34815;DHT22;21030;53.912;15.214;2022-11-20T15:51:32;29.20;22.20
34815;DHT22;21030;53.912;15.214;2022-11-20T15:54:02;28.80;22.30
34815;DHT22;21030;53.912;15.214;2022-11-20T15:56:36;28.60;22.60
34815;DHT22;21030;53.912;15.214;2022-11-20T15:59:04;28.40;22.80
34815;DHT22;21030;53.912;15.214;2022-11-20T16:01:31;28.50;22.60
34815;DHT22;21030;53.912;15.214;2022-11-20T16:03:59;28.30;22.50
34815;DHT22;21030;53.912;15.214;2022-11-20T16:06:26;28.00;22.70
34815;DHT22;21030;53.912;15.214;2022-11-20T16:08:53;28.10;23.10
34815;DHT22;21030;53.912;15.214;2022-11-20T16:11:20;28.10;23.20
34815;DHT22;21030;53.912;15.214;2022-11-20T16:13:48;28.90;22.80
34815;DHT22;21030;53.912;15.214;2022-11-20T16:16:35;28.60;22.60
34815;DHT22;21030;53.912;15.214;2022-11-20T16:19:03;28.70;22.50
34815;DHT22;21030;53.912;15.214;2022-11-20T16:21:32;28.70;22.60
34815;DHT22;21030;53.912;15.214;2022-11-20T16:24:04;28.70;22.70
34815;DHT22;21030;53.912;15.214;2022-11-20T16:26:31;28.70;22.70
34815;DHT22;21030;53.912;15.214;2022-11-20T16:28:59;29.20;22.50
34815;DHT22;21030;53.912;15.214;2022-11-20T16:31:26;29.50;22.20
34815;DHT22;21030;53.912;15.214;2022-11-20T16:33:56;29.40;22.10
34815;DHT22;21030;53.912;15.214;2022-11-20T16:36:25;29.80;22.00
34815;DHT22;21030;53.912;15.214;2022-11-20T16:38:54;29.70;22.00
34815;DHT22;21030;53.912;15.214;2022-11-20T16:41:22;29.90;21.80
34815;DHT22;21030;53.912;15.214;2022-11-20T16:43:53;29.60;21.80
34815;DHT22;21030;53.912;15.214;2022-11-20T16:46:24;29.50;22.00
34815;DHT22;21030;53.912;15.214;2022-11-20T16:48:54;29.60;22.00
34815;DHT22;21030;53.912;15.214;2022-11-20T16:51:23;29.70;22.10
34815;DHT22;21030;53.912;15.214;2022-11-20T16:53:50;30.00;21.90
34815;DHT22;21030;53.912;15.214;2022-11-20T16:56:20;29.90;21.60
34815;DHT22;21030;53.912;15.214;2022-11-20T16:58:48;29.70;21.80
34815;DHT22;21030;53.912;15.214;2022-11-20T17:01:18;29.80;21.90
34815;DHT22;21030;53.912;15.214;2022-11-20T17:03:56;29.90;21.70
34815;DHT22;21030;53.912;15.214;2022-11-20T17:06:26;29.30;21.50
34815;DHT22;21030;53.912;15.214;2022-11-20T17:08:56;29.20;22.00
34815;DHT22;21030;53.912;15.214;2022-11-20T17:11:24;29.20;22.00